Tiempo atmosférico en la estación meteorológica de Velilla del Río Carrión, Camporredondo de Alba, Palencia (1575 m.)



Fecha
DESCASC
Temp. máxima en grados centígrados (hora)
DESCASC
Temp. mínima en grados centígrados (hora)
DESCASC
Temp. media en grados centígrados
DESCASC
Racha de viento máxima en m/sg (hora)
DESCASC
Velocidad máxima media en intervalos de 10 minutos(hora)
DESCASC
Precipitaciones diarias en mm
DESCASC
Precipitaciones de 00:00 a 06:00 en mm
DESCASC
Precipitaciones de 06:00 a 12:00 en mm
DESCASC
Precipitaciones de 12:00 a 18:00 en mm
DESCASC
Precipitaciones de 18:00 a 24:00 en mm
DESCASC
06-07-2020 23.4 (15:30) 11.3 (23:50) 17.3 7.5 (16:40) 6.11 (21:10) 0 0 0 0 0
05-07-2020 27.5 (16:50) 14 (04:50) 20.8 5.83 (13:00) 3.33 (13:10) 0 0 0 0 0
04-07-2020 25.5 (17:30) 9.8 (06:50) 17.7 7.22 (18:10) 4.17 (02:50) 0 0 0 0 0
03-07-2020 21.4 (18:00) 5.1 (03:40) 13.2 9.44 (17:00) 4.17 (15:20) 0 0 0 0 0
02-07-2020 18.8 (13:50) 7.1 (00:00) 12.9 10.28 (16:20) 8.33 (16:20) 0 0 0 0 0
01-07-2020 23.7 (17:40) 11.2 (00:00) 17.5 16.11 (17:30) 9.44 (16:20) 0 0 0 0 0
30-06-2020 25.1 (17:50) 13 (00:00) 19.1 11.67 (18:00) 6.39 (17:20) 0 0 0 0 0
29-06-2020 23.3 (17:10) 12 (00:00) 17.6 6.94 (15:10) 3.89 (15:10) 0 0 0 0 0
28-06-2020 23.2 (18:10) 11.3 (00:00) 17.3 10 (18:10) 6.39 (18:30) 0 0 0 0 0
27-06-2020 20.2 (17:40) 9.7 (00:00) 15 12.5 (18:40) 7.78 (18:40) 0 0 0 0 0
26-06-2020 21 (16:30) 12.2 (00:00) 16.6 14.17 (14:40) 8.33 (13:50) 0 0 0 0 0
25-06-2020 21 (11:40) 11.4 (00:00) 16.2 16.67 (07:20) 12.5 (07:20) 8.6 0 6.6 1.6 0.4
24-06-2020 25.4 (12:40) 14.5 (00:00) 19.9 15.28 (02:30) 9.72 (15:30) 0 0 0 0 0
23-06-2020 27.2 (18:00) 13.4 (00:00) 20.3 11.11 (16:30) 7.22 (15:00) 0 0 0 0 0
22-06-2020 26.4 (16:50) 10.3 (00:00) 18.3 6.67 (16:40) 4.17 (22:50) 0 0 0 0 0
21-06-2020 22.5 (13:40) 11 (00:00) 16.8 8.06 (18:40) 5.28 (19:10) 0 0 0 0 0
20-06-2020 21.3 (17:30) 9.2 (00:00) 15.2 11.39 (17:00) 6.94 (17:00) 0 0 0 0 0
19-06-2020 19.4 (17:10) 6.2 (00:00) 12.8 10.83 (19:20) 6.39 (18:30) 0 0 0 0 0
18-06-2020 15 (17:50) 5 (05:10) 10 8.06 (19:10) 5 (20:40) 0.8 0.8 0 0 0
17-06-2020 14 (13:50) 4.4 (00:00) 9.2 9.72 (14:30) 6.39 (14:30) 5 0 0 0 5
16-06-2020 13.1 (18:30) 5.5 (00:00) 9.3 13.89 (14:30) 8.61 (14:30) 3.6 0 0 3.6 0
15-06-2020 14.8 (13:20) 5.3 (00:00) 10.1 10.83 (16:20) 6.11 (17:40) 0 0 0 0 0
14-06-2020 11.3 (13:40) 4.6 (00:00) 8 10.83 (14:20) 7.5 (15:30) 0 0 0 0 0
13-06-2020 10.6 (17:10) 3.5 (00:00) 7.1 16.67 (16:10) 10.83 (16:20) 2 0.8 0.6 0.2 0.4
12-06-2020 7.7 (19:10) 1.9 (00:00) 4.8 20 (01:50) 12.78 (03:30) 7.4 3.2 0.2 3.8 0.2
11-06-2020 12.5 (12:50) 1.6 (00:00) 7.1 18.33 (18:10) 10.28 (18:20) 2.8 0 0 1.6 1.2
10-06-2020 14.9 (15:40) 2.9 (00:00) 8.9 7.22 (12:50) 4.17 (11:30) 0 0 0 0 0

Gráficas

Temp. máximas Temp. mínimas Temp. medias Precipitaciones Rachas de viento máximas Velocidades máximas media en intervalos de 10 minutos

Datos horarios

Fecha y hora oficial Temperatura (ºC) Velocidad del viento (km/h) Dirección del viento Racha (km/h) Dirección de racha Precipitación (mm) Presión (hPa) Tendencia (hPa) Humedad (%)
2020-07-09 23:00:00 15.3 8 Oeste 13 Este 0 -- -- 63
2020-07-09 22:00:00 15 13 Este 22 Sudeste 0 -- -- 65
2020-07-09 21:00:00 16.3 13 Este 69 Sur 0 -- -- 60
2020-07-09 20:00:00 22 12 Sur 24 Sur 0 -- -- 51
2020-07-09 19:00:00 25.7 6 Este 22 Norte 0 -- -- 34
2020-07-09 18:00:00 24.7 11 Nordeste 36 Norte 0 -- -- 37
2020-07-09 17:00:00 26.4 6 Sudeste 26 Sudoeste 0 -- -- 38
2020-07-09 16:00:00 24.8 4 Sudoeste 22 Este 0 -- -- 44
2020-07-09 15:00:00 27.2 7 Sur 25 Sudoeste 0 -- -- 40
2020-07-09 14:00:00 26.5 6 Sur 18 Sudoeste 0 -- -- 36
2020-07-09 13:00:00 24.6 6 Sudoeste 18 Oeste 0 -- -- 39
2020-07-09 12:00:00 23.3 12 Este 19 Este 0 -- -- 43
2020-07-09 11:00:00 21.4 12 Este 20 Este 0 -- -- 46
2020-07-09 10:00:00 20.2 14 Este 20 Sudeste 0 -- -- 49
2020-07-09 09:00:00 18.6 10 Este 17 Este 0 -- -- 46
2020-07-09 08:00:00 15.8 13 Este 22 Este 0 -- -- 52
2020-07-09 07:00:00 14 18 Este 22 Este 0 -- -- 57
2020-07-09 06:00:00 16 10 Este 15 Este 0 -- -- 52
2020-07-09 05:00:00 16.4 11 Este 23 Este 0 -- -- 51
2020-07-09 04:00:00 15.6 12 Este 17 Sudeste 0 -- -- 57
2020-07-09 03:00:00 15.5 12 Este 18 Este 0 -- -- 60
2020-07-09 02:00:00 15.5 8 Nordeste 14 Nordeste 0 -- -- 61
2020-07-09 01:00:00 15.1 6 Norte 15 Sudoeste 0 -- -- 67
2020-07-09 00:00:00 14.7 8 Sur 27 Sur 0.2 -- -- 71
2020-07-08 23:00:00 16.5 19 Sudeste 29 Sudoeste 0 -- -- 69
2020-07-08 22:00:00 19.1 31 Oeste 52 Oeste 0 -- -- 53
2020-07-08 21:00:00 19.2 21 Sudeste 44 Sur 0 -- -- 57
2020-07-08 20:00:00 22.8 6 Sudeste 80 Oeste 0 -- -- 28
2020-07-08 19:00:00 20.9 21 Sur 41 Sudoeste 0 -- -- 46
2020-07-08 18:00:00 24.6 10 Sudeste 19 Sudoeste 0 -- -- 40
2020-07-08 17:00:00 28 4 Sudoeste 23 Sudoeste 0 -- -- 32
2020-07-08 16:00:00 28.1 12 Sudoeste 25 Sur 0 -- -- 32
2020-07-08 15:00:00 26.9 7 Nordeste 28 Este 0 -- -- 37
2020-07-08 14:00:00 23.9 22 Este 31 Este 0 -- -- 45
2020-07-08 13:00:00 24 13 Este 31 Este 0 -- -- 44
2020-07-08 12:00:00 21.6 18 Sudeste 30 Este 0 -- -- 50
2020-07-08 11:00:00 22.1 19 Este 28 Este 0 -- -- 49
2020-07-08 10:00:00 20.2 20 Este 26 Este 0 -- -- 46
2020-07-08 09:00:00 18.3 16 Este 21 Este 0 -- -- 50
2020-07-08 08:00:00 17.6 15 Este 20 Este 0 -- -- 52
2020-07-08 07:00:00 15.8 17 Este 21 Este 0 -- -- 57
2020-07-08 06:00:00 15.9 18 Este 22 Este 0 -- -- 51
2020-07-08 05:00:00 16.9 13 Este 19 Este 0 -- -- 61
2020-07-08 04:00:00 15.9 18 Este 21 Este 0 -- -- 63
2020-07-08 03:00:00 16.3 11 Este 15 Este 0 -- -- 61
2020-07-08 02:00:00 14.9 13 Este 17 Este 0 -- -- 69
2020-07-08 01:00:00 16.8 15 Este 17 Este 0 -- -- 63
2020-07-08 00:00:00 17 9 Este 16 Este 0 -- -- 64
2020-07-07 23:00:00 17.9 12 Este 21 Este 0 -- -- 59
2020-07-07 22:00:00 17.4 15 Este 19 Este 0 -- -- 65
2020-07-07 21:00:00 20 16 Este 20 Este 0 -- -- 51
2020-07-07 20:00:00 21.4 13 Este 20 Nordeste 0 -- -- 47
2020-07-07 19:00:00 25.8 5 Nordeste 36 Oeste 0 -- -- 38
2020-07-07 18:00:00 26.7 15 Noroeste 28 Oeste 0 -- -- 36
2020-07-07 17:00:00 27.9 10 Oeste 36 Oeste 0 -- -- 38
2020-07-07 16:00:00 26.7 15 Oeste 27 Oeste 0 -- -- 42
2020-07-07 15:00:00 25.9 7 Noroeste 19 Oeste 0 -- -- 46
2020-07-07 14:00:00 25.4 5 Norte 20 Oeste 0 -- -- 48
2020-07-07 13:00:00 25.2 6 Oeste 18 Oeste 0 -- -- 49
2020-07-07 12:00:00 22.9 7 Oeste 13 Oeste 0 -- -- 50
2020-07-07 11:00:00 22.3 2 Oeste 6 Oeste 0 -- -- 46
2020-07-07 10:00:00 20.7 3 Noroeste 8 Noroeste 0 -- -- 48
2020-07-07 09:00:00 18.3 4 Noroeste 8 Noroeste 0 -- -- 44
2020-07-07 08:00:00 15.2 5 Oeste 8 Oeste 0 -- -- 45
2020-07-07 07:00:00 15.2 2 Este 7 Este 0 -- -- 34
2020-07-07 06:00:00 14.9 6 Este 8 Este 0 -- -- 35
2020-07-07 05:00:00 13.3 6 Este 8 Este 0 -- -- 35
2020-07-07 04:00:00 13.4 4 Este 9 Este 0 -- -- 38
2020-07-07 03:00:00 12.7 4 Este 15 Este 0 -- -- 42
2020-07-07 02:00:00 12 13 Este 17 Este 0 -- -- 47
2020-07-07 01:00:00 11.5 15 Este 20 Este 0 -- -- 58
2020-07-07 00:00:00 11.6 18 Este 23 Este 0 -- -- 69
2020-07-06 23:00:00 12.3 19 Este 23 Este 0 -- -- 77
2020-07-06 22:00:00 14.5 18 Este 27 Este 0 -- -- 62
2020-07-06 21:00:00 16.2 21 Este 27 Este 0 -- -- 59
2020-07-06 20:00:00 18.6 15 Sudeste 26 Sudeste 0 -- -- 60
2020-07-06 19:00:00 21.6 12 Sudeste 23 Sudeste 0 -- -- 59
2020-07-06 18:00:00 22.8 9 Sudeste 27 Este 0 -- -- 56
2020-07-06 17:00:00 22.3 12 Sudeste 27 Este 0 -- -- 57
2020-07-06 16:00:00 22.7 14 Este 24 Este 0 -- -- 57
2020-07-06 15:00:00 21.3 15 Este 24 Este 0 -- -- 61
2020-07-06 14:00:00 22 11 Sudeste 24 Este 0 -- -- 57
2020-07-06 13:00:00 20.6 15 Este 23 Este 0 -- -- 62
2020-07-06 12:00:00 20 15 Este 22 Este 0 -- -- 63
2020-07-06 11:00:00 19.5 10 Este 18 Este 0 -- -- 60
2020-07-06 10:00:00 17.9 8 Este 13 Este 0 -- -- 68
2020-07-06 09:00:00 18.2 3 Este 6 Este 0 -- -- 66
2020-07-06 08:00:00 15.4 0 Calma 8 Este 0 -- -- 72
2020-07-06 07:00:00 12.6 3 Norte 11 Nordeste 0 -- -- 87
2020-07-06 06:00:00 13.2 8 Este 9 Este 0 -- -- 82
2020-07-06 05:00:00 13.8 4 Este 6 Este 0 -- -- 84
2020-07-06 04:00:00 13.9 3 Este 8 Nordeste 0 -- -- 85
2020-07-06 03:00:00 14 3 Este 6 Nordeste 0 -- -- 89
2020-07-06 02:00:00 14.2 4 Nordeste 6 Nordeste 0 -- -- 89
2020-07-06 01:00:00 14.5 3 Nordeste 6 Nordeste 0 -- -- 86
2020-07-06 00:00:00 15.4 2 Nordeste 9 Oeste 0 -- -- 84
2020-07-05 23:00:00 16.9 5 Noroeste 12 Noroeste 0 -- -- 79
2020-07-05 22:00:00 18.6 5 Oeste 8 Oeste 0 -- -- 71
2020-07-05 21:00:00 21 4 Este 16 Este 0 -- -- 62
2020-07-05 20:00:00 20.8 6 Sudeste 15 Sudeste 0 -- -- 64
2020-07-05 19:00:00 21.4 7 Sudeste 19 Sudeste 0 -- -- 61
2020-07-05 18:00:00 23.7 5 Sudeste 16 Sudeste 0 -- -- 54
2020-07-05 17:00:00 27 6 Este 17 Este 0 -- -- 49
2020-07-05 16:00:00 24.5 8 Sudeste 18 Este 0 -- -- 53
2020-07-05 15:00:00 24.2 4 Sur 19 Este 0 -- -- 52
2020-07-05 14:00:00 24.4 8 Este 21 Este 0 -- -- 52
2020-07-05 13:00:00 23.2 10 Este 21 Este 0 -- -- 53
2020-07-05 12:00:00 22.6 8 Este 15 Este 0 -- -- 54
2020-07-05 11:00:00 22.1 6 Sudeste 15 Este 0 -- -- 53
2020-07-05 10:00:00 19.5 5 Este 12 Este 0 -- -- 58
2020-07-05 09:00:00 17.5 4 Este 7 Este 0 -- -- 57
2020-07-05 08:00:00 16.4 5 Este 6 Este 0 -- -- 60
2020-07-05 07:00:00 14.5 0 Calma 3 Este 0 -- -- 70
2020-07-05 06:00:00 14.1 0 Calma 5 Nordeste 0 -- -- 76
2020-07-05 05:00:00 14.3 2 Sudeste 3 Sudeste 0 -- -- 76
2020-07-05 04:00:00 14.3 2 Sudoeste 3 Este 0 -- -- 76
2020-07-05 03:00:00 14.5 0 Calma 4 Sur 0 -- -- 75
2020-07-05 02:00:00 14.7 0 Calma 4 Sur 0 -- -- 76
2020-07-05 01:00:00 14.8 4 Este 8 Nordeste 0 -- -- 75
2020-07-05 00:00:00 15.5 5 Este 8 Nordeste 0 -- -- 71
2020-07-04 23:00:00 15.9 0 Calma 10 Noroeste 0 -- -- 71
2020-07-04 22:00:00 17 7 Oeste 14 Oeste 0 -- -- 67
2020-07-04 21:00:00 19.1 5 Este 15 Este 0 -- -- 58
2020-07-04 20:00:00 21 6 Sudeste 20 Este 0 -- -- 51
2020-07-04 19:00:00 24.4 5 Sudeste 26 Sudoeste 0 -- -- 41
2020-07-04 18:00:00 24.4 10 Sudoeste 19 Sur 0 -- -- 38
2020-07-04 17:00:00 24.7 3 Oeste 17 Oeste 0 -- -- 37
2020-07-04 16:00:00 23.3 6 Sudoeste 20 Sudoeste 0 -- -- 41
2020-07-04 15:00:00 23.7 8 Sudoeste 20 Sudoeste 0 -- -- 38
2020-07-04 14:00:00 22 9 Sudoeste 20 Sudoeste 0 -- -- 40
2020-07-04 13:00:00 21.7 5 Este 15 Este 0 -- -- 35
2020-07-04 12:00:00 20.7 4 Oeste 9 Noroeste 0 -- -- 32
2020-07-04 11:00:00 19.6 3 Nordeste 9 Sudeste 0 -- -- 33
2020-07-04 10:00:00 18 2 Sudoeste 8 Noroeste 0 -- -- 37
2020-07-04 09:00:00 15.9 2 Noroeste 4 Noroeste 0 -- -- 28
2020-07-04 08:00:00 15.4 0 Calma 5 Noroeste 0 -- -- 35
2020-07-04 07:00:00 10.5 5 Noroeste 9 Noroeste 0 -- -- 38
2020-07-04 06:00:00 10.7 4 Noroeste 10 Noroeste 0 -- -- 41
2020-07-04 05:00:00 10.5 5 Noroeste 11 Noroeste 0 -- -- 44
2020-07-04 04:00:00 10.9 8 Noroeste 12 Oeste 0 -- -- 44
2020-07-04 03:00:00 10.8 12 Oeste 19 Noroeste 0 -- -- 49
2020-07-04 02:00:00 10.8 12 Oeste 15 Oeste 0 -- -- 55
2020-07-04 01:00:00 11.9 8 Noroeste 12 Noroeste 0 -- -- 57
2020-07-04 00:00:00 11.2 5 Oeste 10 Oeste 0 -- -- 85
2020-07-03 23:00:00 11.3 5 Norte 9 Norte 0 -- -- 86
2020-07-03 22:00:00 12.5 4 Este 13 Este 0 -- -- 80
2020-07-03 21:00:00 15.3 3 Sur 13 Oeste 0 -- -- 64
2020-07-03 20:00:00 17.4 4 Noroeste 14 Oeste 0 -- -- 58
2020-07-03 19:00:00 20 5 Norte 24 Sudoeste 0 -- -- 52
2020-07-03 18:00:00 21.4 8 Oeste 27 Sur 0 -- -- 47
2020-07-03 17:00:00 19.5 9 Sur 34 Norte 0 -- -- 48
2020-07-03 16:00:00 18.7 13 Noroeste 28 Oeste 0 -- -- 54
2020-07-03 15:00:00 18.1 9 Oeste 23 Sudoeste 0 -- -- 53
2020-07-03 14:00:00 15.7 7 Oeste 19 Este 0 -- -- 63
2020-07-03 13:00:00 13.8 11 Este 23 Este 0 -- -- 66
2020-07-03 12:00:00 15.1 4 Este 14 Nordeste 0 -- -- 62
2020-07-03 11:00:00 11.7 3 Este 10 Este 0 -- -- 70
2020-07-03 10:00:00 8 4 Este 8 Nordeste 0 -- -- 86
2020-07-03 09:00:00 6.9 0 Calma 9 Este 0 -- -- 96
2020-07-03 08:00:00 6 3 Sudeste 8 Este 0 -- -- 98
2020-07-03 07:00:00 5.5 2 Sudeste 9 Este 0 -- -- 98
2020-07-03 06:00:00 5.4 0 Calma 5 Nordeste 0 -- -- 98
2020-07-03 05:00:00 5.4 3 Este 6 Este 0 -- -- 97
2020-07-03 04:00:00 5.3 0 Calma 6 Norte 0 -- -- 97
2020-07-03 03:00:00 5.3 4 Norte 6 Norte 0 -- -- 96
2020-07-03 02:00:00 6 5 Este 9 Este 0 -- -- 94
2020-07-03 01:00:00 6.4 7 Este 14 Este 0 -- -- 94
2020-07-03 00:00:00 7.3 12 Este 15 Este 0 -- -- 89
2020-07-02 23:00:00 7.8 3 Este 14 Este 0 -- -- 90
2020-07-02 22:00:00 9.4 2 Nordeste 15 Noroeste 0 -- -- 84
2020-07-02 21:00:00 11.7 3 Noroeste 10 Noroeste 0 -- -- 78
2020-07-02 20:00:00 13.4 4 Sudeste 21 Este 0 -- -- 71
2020-07-02 19:00:00 12.3 15 Este 25 Sudeste 0 -- -- 77
2020-07-02 18:00:00 13.2 11 Sudeste 30 Este 0 -- -- 76
2020-07-02 17:00:00 12.1 13 Este 37 Este 0 -- -- 81
2020-07-02 16:00:00 13.1 23 Nordeste 34 Nordeste 0 -- -- 79
2020-07-02 15:00:00 17.7 8 Sudoeste 32 Oeste 0 -- -- 64
2020-07-02 14:00:00 18.1 18 Sudoeste 32 Oeste 0 -- -- 55
2020-07-02 13:00:00 15.5 15 Sudoeste 34 Oeste 0 -- -- 63
2020-07-02 12:00:00 14.4 13 Oeste 31 Sudoeste 0 -- -- 71
2020-07-02 11:00:00 13.7 7 Sudoeste 16 Oeste 0 -- -- 76
2020-07-02 10:00:00 11.9 3 Oeste 10 Norte 0 -- -- 85
2020-07-02 09:00:00 11.5 3 Sudoeste 6 Este 0 -- -- 93
2020-07-02 08:00:00 9.3 5 Sudoeste 12 Sudoeste 0 -- -- 98
2020-07-02 07:00:00 9.4 7 Oeste 12 Sudoeste 0 -- -- 98
2020-07-02 06:00:00 10.3 5 Oeste 7 Oeste 0 -- -- 98
2020-07-02 05:00:00 10.4 6 Oeste 9 Oeste 0 -- -- 97
2020-07-02 04:00:00 10.6 2 Sudeste 3 Sur 0 -- -- 97
2020-07-02 03:00:00 11 0 Calma 3 Nordeste 0 -- -- 96
2020-07-02 02:00:00 11.3 2 Este 4 Nordeste 0 -- -- 96
2020-07-02 01:00:00 11.6 0 Calma 10 Este 0 -- -- 96
2020-07-02 00:00:00 11.2 6 Este 11 Nordeste 0 -- -- 96
2020-07-01 23:00:00 11.8 4 Nordeste 15 Este 0 -- -- 93
2020-07-01 22:00:00 13.7 7 Nordeste 20 Oeste 0 -- -- 85
2020-07-01 21:00:00 19.1 14 Oeste 42 Oeste 0 -- -- 57
2020-07-01 20:00:00 20.1 28 Oeste 51 Oeste 0 -- -- 49
2020-07-01 19:00:00 22.7 28 Oeste 47 Oeste 0 -- -- 42
2020-07-01 18:00:00 23.2 25 Oeste 58 Oeste 0 -- -- 40
2020-07-01 17:00:00 23.2 28 Oeste 54 Oeste 0 -- -- 29
2020-07-01 16:00:00 22.5 32 Oeste 55 Oeste 0 -- -- 34
2020-07-01 15:00:00 22.1 23 Oeste 49 Oeste 0 -- -- 44
2020-07-01 14:00:00 21.9 26 Oeste 39 Oeste 0 -- -- 39
2020-07-01 13:00:00 22.5 21 Sudoeste 37 Oeste 0 -- -- 44
2020-07-01 12:00:00 21.1 15 Sudoeste 32 Oeste 0 -- -- 61
2020-07-01 11:00:00 19.4 5 Oeste 18 Oeste 0 -- -- 66
2020-07-01 10:00:00 21 2 Oeste 9 Noroeste 0 -- -- 60
2020-07-01 09:00:00 18.9 3 Noroeste 12 Noroeste 0 -- -- 63
2020-07-01 08:00:00 16.3 10 Noroeste 14 Oeste 0 -- -- 69
2020-07-01 07:00:00 15.6 5 Sudoeste 8 Sudoeste 0 -- -- 73
2020-07-01 06:00:00 15.8 2 Sudoeste 12 Sudoeste 0 -- -- 71
2020-07-01 05:00:00 16.4 3 Sudeste 8 Oeste 0 -- -- 70
2020-07-01 04:00:00 16 6 Este 10 Este -- -- -- 70
2020-07-01 03:00:00 16.6 8 Este 10 Este 0 -- -- 67
2020-07-01 02:00:00 17 6 Este 11 Este 0 -- -- 64
2020-07-01 01:00:00 16.1 9 Este 14 Este 0 -- -- 73
2020-07-01 00:00:00 16.8 5 Sudeste 16 Sur 0 -- -- 69
2020-06-30 23:00:00 17.4 5 Sudoeste 15 Oeste 0 -- -- 60
2020-06-30 22:00:00 17.9 11 Oeste 21 Noroeste 0 -- -- 65
2020-06-30 21:00:00 19.1 15 Oeste 20 Oeste 0 -- -- 63
2020-06-30 20:00:00 21.4 8 Oeste 28 Oeste 0 -- -- 59
2020-06-30 19:00:00 23.1 20 Oeste 34 Oeste 0 -- -- 39
2020-06-30 18:00:00 24.5 23 Oeste 42 Oeste 0 -- -- 38
2020-06-30 17:00:00 24.3 21 Oeste 40 Oeste 0 -- -- 40
2020-06-30 16:00:00 23.4 21 Oeste 33 Oeste 0 -- -- 48
2020-06-30 15:00:00 23 17 Oeste 30 Oeste 0 -- -- 51
2020-06-30 14:00:00 22.2 15 Oeste 28 Sudoeste 0 -- -- 53
2020-06-30 13:00:00 22.5 8 Oeste 14 Oeste 0 -- -- 55
2020-06-30 12:00:00 22.7 2 Norte 8 Sudoeste 0 -- -- 55
2020-06-30 11:00:00 23.7 3 Norte 10 Nordeste 0 -- -- 52
2020-06-30 10:00:00 21.8 0 Calma 5 Este 0 -- -- 54
2020-06-30 09:00:00 19.3 0 Calma 5 Nordeste 0 -- -- 55
2020-06-30 08:00:00 16.8 3 Sudeste 4 Este 0 -- -- 62
2020-06-30 07:00:00 14.2 0 Calma 6 Este 0 -- -- 71
2020-06-30 06:00:00 13.7 3 Este 4 Este 0 -- -- 66
2020-06-30 05:00:00 13.4 2 Noroeste 5 Oeste 0 -- -- 66
2020-06-30 04:00:00 13.1 4 Noroeste 8 Oeste 0 -- -- 64
2020-06-30 03:00:00 13.3 5 Oeste 8 Noroeste 0 -- -- 60
2020-06-30 02:00:00 13.7 4 Noroeste 8 Oeste 0 -- -- 65
2020-06-30 01:00:00 13.5 6 Noroeste 9 Noroeste 0 -- -- 68
2020-06-30 00:00:00 14.1 5 Oeste 9 Oeste 0 -- -- 65
2020-06-29 23:00:00 14.3 3 Sudoeste 12 Este 0 -- -- 90
2020-06-29 22:00:00 15.2 6 Este 13 Este 0 -- -- 88
2020-06-29 21:00:00 17.4 9 Este 13 Este 0 -- -- 80
2020-06-29 20:00:00 17.5 10 Este 17 Este 0 -- -- 79
2020-06-29 19:00:00 22.7 3 Este 12 Sudoeste 0 -- -- 63
2020-06-29 18:00:00 20.8 8 Oeste 19 Oeste 0 -- -- 65
2020-06-29 17:00:00 22.7 6 Noroeste 21 Oeste 0 -- -- 59
2020-06-29 16:00:00 20 5 Norte 25 Sur 0 -- -- 67
2020-06-29 15:00:00 22.4 7 Sudoeste 25 Sudeste 0 -- -- 60
2020-06-29 14:00:00 20.4 8 Sudeste 19 Este 0 -- -- 69
2020-06-29 13:00:00 19.2 6 Sudeste 18 Sudoeste 0 -- -- 65
2020-06-29 12:00:00 19.2 8 Oeste 21 Oeste 0 -- -- 62
2020-06-29 11:00:00 16.7 11 Oeste 20 Oeste 0 -- -- 74
2020-06-29 10:00:00 15.2 7 Oeste 13 Sudoeste 0 -- -- 83
2020-06-29 09:00:00 12.9 5 Oeste 8 Oeste 0 -- -- 97
2020-06-29 08:00:00 12.2 2 Oeste 5 Sudoeste 0 -- -- 98
2020-06-29 07:00:00 12.2 0 Calma 6 Este 0 -- -- 98
2020-06-29 06:00:00 12.2 0 Calma 4 Nordeste 0 -- -- 98
2020-06-29 05:00:00 12.3 3 Oeste 6 Este 0 -- -- 98
2020-06-29 04:00:00 12.3 0 Calma 4 Este 0 -- -- 97
2020-06-29 03:00:00 12.4 0 Calma 4 Oeste 0 -- -- 97
2020-06-29 02:00:00 12.5 0 Calma 5 Noroeste 0 -- -- 97
2020-06-29 01:00:00 12.7 2 Nordeste 8 Noroeste 0 -- -- 96
2020-06-29 00:00:00 12.7 6 Noroeste 10 Oeste 0 -- -- 96
2020-06-28 23:00:00 13.3 4 Oeste 12 Noroeste 0 -- -- 94
2020-06-28 22:00:00 14.5 4 Noroeste 10 Noroeste 0 -- -- 88
2020-06-28 21:00:00 19.2 6 Norte 24 Oeste 0 -- -- 71
2020-06-28 20:00:00 19.6 17 Oeste 33 Oeste 0 -- -- 61
2020-06-28 19:00:00 21.7 19 Oeste 36 Oeste 0 -- -- 55
2020-06-28 18:00:00 22.9 20 Oeste 33 Sudoeste 0 -- -- 51
2020-06-28 17:00:00 23 19 Oeste 33 Sudoeste 0 -- -- 51
2020-06-28 16:00:00 20.8 12 Oeste 28 Oeste 0 -- -- 58
2020-06-28 15:00:00 20.2 10 Oeste 26 Oeste 0 -- -- 60
2020-06-28 14:00:00 20.4 11 Oeste 23 Noroeste 0 -- -- 58
2020-06-28 13:00:00 21.8 8 Sudoeste 22 Oeste 0 -- -- 58
2020-06-28 12:00:00 20 6 Oeste 17 Oeste 0 -- -- 54
2020-06-28 11:00:00 16.5 11 Oeste 18 Oeste 0 -- -- 64
2020-06-28 10:00:00 15.8 10 Noroeste 14 Noroeste 0 -- -- 60
2020-06-28 09:00:00 15.2 10 Noroeste 12 Noroeste 0 -- -- 61
2020-06-28 08:00:00 13.6 8 Oeste 11 Noroeste 0 -- -- 67
2020-06-28 07:00:00 11.5 8 Oeste 11 Noroeste 0 -- -- 71
2020-06-28 06:00:00 11.5 5 Noroeste 8 Oeste 0 -- -- 71
2020-06-28 05:00:00 12.3 2 Noroeste 7 Noroeste 0 -- -- 64
2020-06-28 04:00:00 13.6 6 Oeste 14 Sudoeste 0 -- -- 57
2020-06-28 03:00:00 13.7 9 Sudoeste 17 Oeste 0 -- -- 67
2020-06-28 02:00:00 14.3 12 Oeste 19 Oeste 0 -- -- 67
2020-06-28 01:00:00 14.1 9 Oeste 10 Oeste 0 -- -- 71
2020-06-28 00:00:00 13.9 6 Oeste 18 Oeste 0 -- -- 73
2020-06-27 23:00:00 14.3 8 Oeste 17 Noroeste 0 -- -- 75
2020-06-27 22:00:00 15.3 13 Oeste 34 Oeste 0 -- -- 67
2020-06-27 21:00:00 16.8 19 Oeste 43 Oeste 0 -- -- 61
2020-06-27 20:00:00 18.1 22 Oeste 39 Oeste 0 -- -- 55
2020-06-27 19:00:00 19.2 24 Oeste 45 Oeste 0 -- -- 57
2020-06-27 18:00:00 19.7 20 Oeste 39 Oeste 0 -- -- 59
2020-06-27 17:00:00 18 23 Oeste 36 Oeste 0 -- -- 63
2020-06-27 16:00:00 17 23 Oeste 40 Oeste 0 -- -- 68
2020-06-27 15:00:00 19.1 19 Oeste 36 Oeste 0 -- -- 59
2020-06-27 14:00:00 17.5 19 Oeste 37 Oeste 0 -- -- 65
2020-06-27 13:00:00 16.9 17 Oeste 32 Oeste 0 -- -- 67
2020-06-27 12:00:00 16.3 17 Oeste 27 Oeste 0 -- -- 71
2020-06-27 11:00:00 15.4 18 Oeste 28 Oeste 0 -- -- 71
2020-06-27 10:00:00 13.7 16 Oeste 20 Oeste 0 -- -- 76
2020-06-27 09:00:00 12.6 13 Oeste 17 Oeste 0 -- -- 77
2020-06-27 08:00:00 12.1 10 Noroeste 13 Oeste 0 -- -- 76
2020-06-27 07:00:00 10.4 9 Oeste 17 Oeste 0 -- -- 87
2020-06-27 06:00:00 9.9 13 Oeste 17 Noroeste 0 -- -- 90
2020-06-27 05:00:00 10.1 9 Oeste 14 Oeste 0 -- -- 90
2020-06-27 04:00:00 11.6 9 Noroeste 15 Oeste 0 -- -- 79
2020-06-27 03:00:00 11 13 Oeste 20 Oeste 0 -- -- 86
2020-06-27 02:00:00 11.8 3 Oeste 12 Sudoeste 0 -- -- 81
2020-06-27 01:00:00 13.3 5 Noroeste 18 Oeste 0 -- -- 68
2020-06-27 00:00:00 13.5 10 Oeste 15 Sudoeste 0 -- -- 65
2020-06-26 23:00:00 14.2 10 Oeste 18 Oeste 0 -- -- 65
2020-06-26 22:00:00 15.2 14 Oeste 19 Oeste 0 -- -- 65
2020-06-26 21:00:00 16.5 12 Oeste 27 Oeste 0 -- -- 63
2020-06-26 20:00:00 17.8 17 Oeste 31 Oeste 0 -- -- 55
2020-06-26 19:00:00 18.9 15 Oeste 32 Oeste 0 -- -- 47
2020-06-26 18:00:00 19.6 18 Oeste 41 Oeste 0 -- -- 43
2020-06-26 17:00:00 19.7 22 Oeste 45 Oeste 0 -- -- 51
2020-06-26 16:00:00 19.2 23 Oeste 44 Oeste 0 -- -- 53
2020-06-26 15:00:00 19.7 26 Oeste 51 Oeste 0 -- -- 52
2020-06-26 14:00:00 19.3 28 Oeste 46 Oeste 0 -- -- 64
2020-06-26 13:00:00 18.2 18 Oeste 34 Oeste 0 -- -- 68
2020-06-26 12:00:00 18.5 21 Oeste 35 Sudoeste 0 -- -- 67
2020-06-26 11:00:00 17.8 12 Oeste 20 Noroeste 0 -- -- 77
2020-06-26 10:00:00 19.1 2 Noroeste 12 Este 0 -- -- 66
2020-06-26 09:00:00 14.9 4 Este 9 Este 0 -- -- 84
2020-06-26 08:00:00 12.9 6 Nordeste 18 Sur 0 -- -- 90
2020-06-26 07:00:00 12.4 6 Sudeste 20 Sudeste 0 -- -- 89
2020-06-26 06:00:00 12.8 8 Sur 24 Sur 0 -- -- 88
2020-06-26 05:00:00 13.1 12 Este 22 Sudeste 0 -- -- 84
2020-06-26 04:00:00 13.2 6 Este 15 Este 0 -- -- 83
2020-06-26 03:00:00 13.5 4 Este 10 Este 0 -- -- 82
2020-06-26 02:00:00 13 12 Este 21 Este 0 -- -- 87
2020-06-26 01:00:00 12.9 18 Este 28 Este 0 -- -- 85
2020-06-26 00:00:00 13.3 20 Este 25 Este 0 -- -- 86
2020-06-25 23:00:00 13.4 21 Este 28 Este 0 -- -- 88
2020-06-25 22:00:00 14.3 12 Este 32 Este 0 -- -- 87
2020-06-25 21:00:00 14.8 18 Sudeste 32 Este 0 -- -- 92
2020-06-25 20:00:00 16.5 8 Nordeste 22 Sudeste 0.4 -- -- 82
2020-06-25 19:00:00 17.1 5 Sudeste 23 Este 0 -- -- 75
2020-06-25 18:00:00 19.3 10 Sudeste 22 Este 0 -- -- 61
2020-06-25 17:00:00 19.7 11 Sur 23 Este 0 -- -- 60
2020-06-25 16:00:00 17.8 8 Este 21 Este 0 -- -- 72
2020-06-25 15:00:00 14.5 7 Este 34 Este 0.4 -- -- 79
2020-06-25 14:00:00 13.3 15 Sur 36 Sudoeste 0 -- -- 82
2020-06-25 13:00:00 14.7 20 Este 41 Sudoeste 1.2 -- -- 73
2020-06-25 12:00:00 17.8 12 Sur 25 Sudoeste 0 -- -- 58
2020-06-25 11:00:00 17.8 8 Este 16 Este 0 -- -- 56
2020-06-25 10:00:00 15.1 8 Sudeste 26 Nordeste 0.2 -- -- 70
2020-06-25 09:00:00 11.4 19 Nordeste 31 Oeste 3.6 -- -- 86
2020-06-25 08:00:00 12.4 28 Este 60 Sudoeste 2.8 -- -- 78
2020-06-25 07:00:00 14.5 8 Este 21 Nordeste 0 -- -- 67
2020-06-25 06:00:00 14.2 10 Este 15 Este 0 -- -- 66
2020-06-25 05:00:00 14.3 15 Este 18 Este 0 -- -- 67
2020-06-25 04:00:00 15.2 8 Este 13 Norte 0 -- -- 61
2020-06-25 03:00:00 16.7 3 Oeste 18 Norte 0 -- -- 51
2020-06-25 02:00:00 15.7 13 Noroeste 21 Noroeste 0 -- -- 64
2020-06-25 01:00:00 15.9 12 Sudoeste 26 Este 0 -- -- 64
2020-06-25 00:00:00 14.5 12 Oeste 27 Noroeste 0 -- -- 77
2020-06-24 23:00:00 15.8 14 Noroeste 26 Noroeste 0 -- -- 72
2020-06-24 22:00:00 17.5 12 Noroeste 22 Oeste 0 -- -- 59
2020-06-24 21:00:00 18.3 17 Oeste 32 Oeste 0 -- -- 57
2020-06-24 20:00:00 19.1 7 Oeste 10 Oeste 0 -- -- 55
2020-06-24 19:00:00 21 2 Norte 17 Este 0 -- -- 50
2020-06-24 18:00:00 18.8 20 Este 36 Sudeste 0 -- -- 54
2020-06-24 17:00:00 18.6 15 Sur 38 Sudoeste 0 -- -- 48
2020-06-24 16:00:00 18 25 Noroeste 55 Oeste 0 -- -- 49
2020-06-24 15:00:00 21.2 28 Oeste 41 Oeste 0 -- -- 45
2020-06-24 14:00:00 25.4 8 Sudoeste 25 Oeste 0 -- -- 41
2020-06-24 13:00:00 24.4 10 Sudoeste 23 Sudoeste 0 -- -- 41
2020-06-24 12:00:00 23 16 Sudoeste 28 Sudoeste 0 -- -- 45
2020-06-24 11:00:00 21.7 12 Sudoeste 26 Sudoeste 0 -- -- 46
2020-06-24 10:00:00 24.1 3 Sudeste 10 Este 0 -- -- 34
2020-06-24 09:00:00 21.3 6 Este 13 Este 0 -- -- 37
2020-06-24 08:00:00 18.6 11 Este 31 Sudoeste 0 -- -- 40
2020-06-24 07:00:00 19 10 Sudoeste 17 Sudoeste 0 -- -- 37
2020-06-24 06:00:00 18.9 4 Oeste 9 Oeste 0 -- -- 38
2020-06-24 05:00:00 19 7 Noroeste 14 Noroeste 0 -- -- 37
2020-06-24 04:00:00 18.7 10 Noroeste 16 Nordeste 0 -- -- 39
2020-06-24 03:00:00 19.2 15 Nordeste 55 Sudoeste 0 -- -- 39
2020-06-24 02:00:00 18 19 Oeste 53 Oeste 0 -- -- 50
2020-06-24 01:00:00 18.2 17 Este 32 Sur 0 -- -- 48
2020-06-24 00:00:00 19.3 12 Sur 24 Sudeste 0 -- -- 46
2020-06-23 23:00:00 18.9 15 Este 21 Este 0 -- -- 51
2020-06-23 22:00:00 20.4 9 Este 14 Este 0 -- -- 49
2020-06-23 21:00:00 24.5 5 Este 18 Oeste 0 -- -- 40
2020-06-23 20:00:00 25.2 8 Oeste 26 Oeste 0 -- -- 31
2020-06-23 19:00:00 26.7 18 Oeste 32 Oeste 0 -- -- 28
2020-06-23 18:00:00 27.2 12 Oeste 31 Oeste 0 -- -- 29
2020-06-23 17:00:00 26 19 Oeste 40 Oeste 0 -- -- 29
2020-06-23 16:00:00 26.1 24 Oeste 40 Oeste 0 -- -- 26
2020-06-23 15:00:00 25.4 26 Oeste 40 Oeste 0 -- -- 30
2020-06-23 14:00:00 25.1 21 Oeste 37 Oeste 0 -- -- 33
2020-06-23 13:00:00 24.6 17 Oeste 26 Oeste 0 -- -- 35
2020-06-23 12:00:00 25.5 3 Oeste 9 Sudoeste 0 -- -- 37
2020-06-23 11:00:00 24 3 Este 10 Sudeste 0 -- -- 37
2020-06-23 10:00:00 22.2 4 Este 6 Este 0 -- -- 33
2020-06-23 09:00:00 21.3 3 Sudeste 9 Este 0 -- -- 30
2020-06-23 08:00:00 18.2 2 Este 17 Este 0 -- -- 28
2020-06-23 07:00:00 13.5 14 Este 17 Este 0 -- -- 36
2020-06-23 06:00:00 14 15 Este 17 Este 0 -- -- 36
2020-06-23 05:00:00 15.8 6 Sudeste 17 Este 0 -- -- 34
2020-06-23 04:00:00 13.9 12 Este 15 Este 0 -- -- 41
2020-06-23 03:00:00 15.2 6 Este 13 Nordeste 0 -- -- 39
2020-06-23 02:00:00 16.5 5 Este 12 Este 0 -- -- 39
2020-06-23 01:00:00 16.7 5 Este 18 Este 0 -- -- 41
2020-06-23 00:00:00 17.5 15 Este 21 Este 0 -- -- 40
2020-06-22 23:00:00 17 14 Este 20 Este 0 -- -- 63
2020-06-22 22:00:00 17.7 12 Sudeste 21 Este 0 -- -- 64
2020-06-22 21:00:00 19.4 13 Sudeste 20 Este 0 -- -- 48
2020-06-22 20:00:00 20.7 15 Sudeste 22 Sudeste 0 -- -- 45
2020-06-22 19:00:00 24.5 7 Sudeste 21 Este 0 -- -- 39
2020-06-22 18:00:00 24.9 7 Sudeste 21 Sudeste 0 -- -- 33
2020-06-22 17:00:00 25.7 8 Sudeste 24 Sudoeste 0 -- -- 36
2020-06-22 16:00:00 24.6 10 Sur 19 Sur 0 -- -- 42
2020-06-22 15:00:00 24.7 6 Sur 15 Sudeste 0 -- -- 34
2020-06-22 14:00:00 22.5 6 Sur 18 Sudoeste 0 -- -- 46
2020-06-22 13:00:00 23.1 5 Sur 19 Este 0 -- -- 48
2020-06-22 12:00:00 21.1 6 Nordeste 12 Este 0 -- -- 47
2020-06-22 11:00:00 20.1 4 Este 9 Este 0 -- -- 48
2020-06-22 10:00:00 19.4 3 Nordeste 8 Nordeste 0 -- -- 56
2020-06-22 09:00:00 18.3 2 Este 4 Este 0 -- -- 55
2020-06-22 08:00:00 16.5 0 Calma 2 Sudoeste 0 -- -- 57
2020-06-22 07:00:00 12.8 0 Calma 6 Sudoeste 0 -- -- 67
2020-06-22 06:00:00 11.9 0 Calma 4 Este 0 -- -- 80
2020-06-22 05:00:00 11.1 0 Calma 6 Este 0 -- -- 94
2020-06-22 04:00:00 10.8 0 Calma 5 Este 0 -- -- 98
2020-06-22 03:00:00 10.6 3 Este 11 Este 0 -- -- 97
2020-06-22 02:00:00 10.9 5 Nordeste 7 Noroeste 0 -- -- 96
2020-06-22 01:00:00 11.3 5 Noroeste 8 Noroeste 0 -- -- 94
2020-06-22 00:00:00 11.8 6 Noroeste 8 Noroeste 0 -- -- 92
2020-06-21 23:00:00 12.4 4 Noroeste 6 Oeste 0 -- -- 91
2020-06-21 22:00:00 12.7 6 Nordeste 14 Nordeste 0 -- -- 89
2020-06-21 21:00:00 15.2 12 Este 14 Nordeste 0 -- -- 80
2020-06-21 20:00:00 16.3 12 Este 28 Este 0 -- -- 77
2020-06-21 19:00:00 17.4 17 Este 29 Este 0 -- -- 74
2020-06-21 18:00:00 20.6 4 Sudoeste 17 Sudoeste 0 -- -- 55
2020-06-21 17:00:00 19.4 4 Sur 22 Sudoeste 0 -- -- 58
2020-06-21 16:00:00 20.1 5 Sudoeste 23 Oeste 0 -- -- 52
2020-06-21 15:00:00 21.6 9 Sudoeste 27 Sudoeste 0 -- -- 51
2020-06-21 14:00:00 21.3 5 Nordeste 19 Oeste 0 -- -- 51
2020-06-21 13:00:00 20.3 4 Noroeste 17 Sudoeste 0 -- -- 49
2020-06-21 12:00:00 18.9 5 Oeste 17 Este 0 -- -- 54
2020-06-21 11:00:00 17.3 9 Este 19 Este 0 -- -- 64
2020-06-21 10:00:00 15.6 6 Sudeste 12 Este 0 -- -- 70
2020-06-21 09:00:00 13.5 7 Este 10 Este 0 -- -- 69
2020-06-21 08:00:00 14.2 3 Sudeste 5 Este 0 -- -- 66
2020-06-21 07:00:00 11.6 4 Sudeste 5 Este 0 -- -- 73
2020-06-21 06:00:00 11.2 4 Este 8 Este 0 -- -- 75
2020-06-21 05:00:00 11.2 5 Este 10 Este 0 -- -- 77
2020-06-21 04:00:00 11.5 6 Este 9 Este 0 -- -- 84
2020-06-21 03:00:00 12.1 3 Nordeste 4 Nordeste 0 -- -- 74
2020-06-21 02:00:00 13.4 -- -- -- -- 0 -- -- 68
2020-06-21 01:00:00 14.2 4 Oeste 7 Oeste 0 -- -- 62
2020-06-21 00:00:00 14.8 0 Calma 7 Sudoeste 0 -- -- 64
2020-06-20 23:00:00 15.8 4 Este 9 Oeste 0 -- -- 55
2020-06-20 22:00:00 16.9 8 Oeste 23 Oeste 0 -- -- 51
2020-06-20 21:00:00 18.4 13 Oeste 27 Oeste 0 -- -- 48
2020-06-20 20:00:00 19.2 16 Oeste 31 Oeste 0 -- -- 45
2020-06-20 19:00:00 20.4 20 Oeste 40 Oeste 0 -- -- 44
2020-06-20 18:00:00 21.1 21 Oeste 38 Oeste 0 -- -- 41
2020-06-20 17:00:00 20.4 25 Oeste 41 Oeste 0 -- -- 43
2020-06-20 16:00:00 20.3 17 Oeste 30 Oeste 0 -- -- 44
2020-06-20 15:00:00 19.5 18 Oeste 32 Sudoeste 0 -- -- 51
2020-06-20 14:00:00 18.2 15 Oeste 28 Oeste 0 -- -- 48
2020-06-20 13:00:00 17.7 13 Oeste 32 Oeste 0 -- -- 48
2020-06-20 12:00:00 15.6 16 Oeste 26 Oeste 0 -- -- 51
2020-06-20 11:00:00 14.5 13 Oeste 22 Noroeste 0 -- -- 58
2020-06-20 10:00:00 13.1 9 Noroeste 14 Noroeste 0 -- -- 65
2020-06-20 09:00:00 12.2 9 Noroeste 15 Noroeste 0 -- -- 74
2020-06-20 08:00:00 11 9 Oeste 13 Oeste 0 -- -- 77
2020-06-20 07:00:00 10 8 Oeste 13 Sudoeste 0 -- -- 81
2020-06-20 06:00:00 9.7 4 Oeste 7 Oeste 0 -- -- 83
2020-06-20 05:00:00 10.2 5 Oeste 11 Oeste 0 -- -- 82
2020-06-20 04:00:00 10.5 6 Noroeste 9 Oeste 0 -- -- 81
2020-06-20 03:00:00 9.3 3 Noroeste 6 Noroeste 0 -- -- 89
2020-06-20 02:00:00 10 5 Noroeste 7 Oeste 0 -- -- 83
2020-06-20 01:00:00 9.9 0 Calma 6 Oeste 0 -- -- 84
2020-06-20 00:00:00 10.1 5 Norte 13 Nordeste 0 -- -- 89
2020-06-19 23:00:00 10.7 7 Nordeste 13 Nordeste 0 -- -- 88
2020-06-19 22:00:00 12.4 3 Norte 16 Noroeste 0 -- -- 81
2020-06-19 21:00:00 15.8 11 Oeste 31 Oeste 0 -- -- 64
2020-06-19 20:00:00 16.3 19 Oeste 39 Sudoeste 0 -- -- 49
2020-06-19 19:00:00 18.2 19 Oeste 37 Oeste 0 -- -- 48
2020-06-19 18:00:00 16.9 21 Oeste 35 Oeste 0 -- -- 52
2020-06-19 17:00:00 18.2 20 Oeste 35 Oeste 0 -- -- 47
2020-06-19 16:00:00 18.5 16 Oeste 32 Oeste 0 -- -- 49
2020-06-19 15:00:00 17.8 13 Oeste 27 Oeste 0 -- -- 51
2020-06-19 14:00:00 16.5 10 Oeste 29 Oeste 0 -- -- 52
2020-06-19 13:00:00 15.6 10 Oeste 22 Oeste 0 -- -- 59
2020-06-19 12:00:00 14.1 8 Oeste 16 Oeste 0 -- -- 64
2020-06-19 11:00:00 14.2 3 Oeste 10 Este 0 -- -- 62
2020-06-19 10:00:00 11.4 5 Este 12 Este 0 -- -- 74
2020-06-19 09:00:00 7.6 6 Este 9 Este 0 -- -- 81
2020-06-19 08:00:00 7.1 10 Este 17 Este 0 -- -- 84
2020-06-19 07:00:00 6.4 15 Este 20 Este 0 -- -- 92
2020-06-19 06:00:00 6.4 10 Este 13 Este 0 -- -- 95
2020-06-19 05:00:00 6.7 10 Este 12 Este 0 -- -- 98
2020-06-19 04:00:00 6.3 5 Este 9 Este 0 -- -- 99
2020-06-19 03:00:00 6.5 7 Este 13 Este 0 -- -- 99
2020-06-19 02:00:00 6.6 12 Este 15 Este 0 -- -- 99
2020-06-19 01:00:00 6.8 14 Este 18 Este 0 -- -- 98
2020-06-19 00:00:00 6.8 13 Este 17 Este 0 -- -- 97
2020-06-18 23:00:00 7.3 11 Este 18 Este 0 -- -- 97
2020-06-18 22:00:00 8.2 16 Este 21 Nordeste 0 -- -- 94
2020-06-18 21:00:00 10.2 14 Este 23 Este 0 -- -- 86
2020-06-18 20:00:00 12.8 13 Sudeste 29 Noroeste 0 -- -- 76
2020-06-18 19:00:00 14.9 8 Noroeste 24 Noroeste 0 -- -- 64
2020-06-18 18:00:00 14.9 5 Noroeste 21 Oeste 0 -- -- 57
2020-06-18 17:00:00 13.6 17 Oeste 27 Noroeste 0 -- -- 61
2020-06-18 16:00:00 14.3 15 Oeste 27 Oeste 0 -- -- 61
2020-06-18 15:00:00 12.6 12 Oeste 28 Noroeste 0 -- -- 60
2020-06-18 14:00:00 13.5 8 Noroeste 21 Noroeste 0 -- -- 66
2020-06-18 13:00:00 12.1 8 Noroeste 20 Oeste 0 -- -- 69
2020-06-18 12:00:00 10.9 13 Oeste 26 Oeste 0 -- -- 68
2020-06-18 11:00:00 10.1 10 Oeste 18 Oeste 0 -- -- 77
2020-06-18 10:00:00 7.7 4 Oeste 10 Oeste 0 -- -- 96
2020-06-18 09:00:00 7.1 4 Oeste 10 Este 0 -- -- 95
2020-06-18 08:00:00 5.1 2 Este 8 Oeste 0 -- -- 99
2020-06-18 07:00:00 5.2 3 Oeste 5 Oeste 0 -- -- 99
2020-06-18 06:00:00 5.4 2 Norte 5 Nordeste 0 -- -- 99
2020-06-18 05:00:00 5.2 3 Este 4 Este 0 -- -- 99
2020-06-18 04:00:00 5.1 3 Este 9 Este 0 -- -- 99
2020-06-18 03:00:00 5.9 5 Este 12 Este 0 -- -- 98
2020-06-18 02:00:00 6.1 3 Nordeste 8 Nordeste 0.2 -- -- 98
2020-06-18 01:00:00 6 4 Oeste 16 Oeste 0.6 -- -- 98
2020-06-18 00:00:00 6.6 12 Noroeste 30 Oeste 5 -- -- 97
2020-06-17 23:00:00 7.2 2 Nordeste 12 Este 0 -- -- 95
2020-06-17 22:00:00 7.1 12 Este 17 Este 0 -- -- 96
2020-06-17 21:00:00 8.7 5 Nordeste 10 Este 0 -- -- 83
2020-06-17 20:00:00 9.7 5 Nordeste 18 Oeste 0 -- -- 78
2020-06-17 19:00:00 11.6 10 Oeste 20 Noroeste 0 -- -- 64
2020-06-17 18:00:00 11.5 13 Oeste 24 Oeste 0 -- -- 63
2020-06-17 17:00:00 11.6 10 Oeste 25 Oeste 0 -- -- 61
2020-06-17 16:00:00 11.7 13 Oeste 33 Oeste 0 -- -- 62
2020-06-17 15:00:00 11.8 15 Oeste 35 Oeste 0 -- -- 67
2020-06-17 14:00:00 13.1 15 Oeste 27 Oeste 0 -- -- 59
2020-06-17 13:00:00 10.7 13 Oeste 26 Oeste 0 -- -- 67
2020-06-17 12:00:00 9 18 Oeste 26 Oeste 0 -- -- 75
2020-06-17 11:00:00 11 5 Oeste 23 Oeste 0 -- -- 65
2020-06-17 10:00:00 6.3 12 Oeste 23 Oeste 0 -- -- 85
2020-06-17 09:00:00 7.8 6 Noroeste 19 Noroeste 0 -- -- 78
2020-06-17 08:00:00 5.5 16 Oeste 21 Noroeste 0 -- -- 92
2020-06-17 07:00:00 4.4 8 Oeste 18 Noroeste 0 -- -- 96
2020-06-17 06:00:00 4.4 10 Oeste 20 Oeste 0 -- -- 98
2020-06-17 05:00:00 4.8 14 Noroeste 20 Noroeste 0 -- -- 97
2020-06-17 04:00:00 4.9 15 Noroeste 20 Noroeste 0 -- -- 96
2020-06-17 03:00:00 5.1 13 Noroeste 22 Noroeste 0 -- -- 95
2020-06-17 02:00:00 5.4 12 Oeste 22 Oeste 0 -- -- 95
2020-06-17 01:00:00 5.7 11 Oeste 19 Noroeste 0 -- -- 91
2020-06-17 00:00:00 6.1 12 Oeste 21 Noroeste 0 -- -- 87
2020-06-16 23:00:00 6.1 13 Noroeste 24 Noroeste 0 -- -- 89
2020-06-16 22:00:00 7.1 12 Noroeste 25 Oeste 0 -- -- 84
2020-06-16 21:00:00 9.5 14 Oeste 33 Norte 0 -- -- 72
2020-06-16 20:00:00 9.4 17 Noroeste 35 Norte 0 -- -- 73
2020-06-16 19:00:00 13.1 14 Noroeste 31 Noroeste 0 -- -- 60
2020-06-16 18:00:00 11.9 10 Noroeste 30 Noroeste 0 -- -- 78
2020-06-16 17:00:00 9.9 15 Oeste 35 Noroeste 0.2 -- -- 90
2020-06-16 16:00:00 8.5 7 Sudoeste 19 Noroeste 2 -- -- 92
2020-06-16 15:00:00 8.6 12 Oeste 50 Oeste 1.4 -- -- 95
2020-06-16 14:00:00 11.2 19 Oeste 32 Oeste 0 -- -- 74
2020-06-16 13:00:00 11.1 20 Oeste 33 Oeste 0 -- -- 74
2020-06-16 12:00:00 8.9 20 Oeste 30 Sudoeste 0 -- -- 82
2020-06-16 11:00:00 8.4 10 Oeste 19 Oeste 0 -- -- 95
2020-06-16 10:00:00 7.1 7 Oeste 13 Oeste 0 -- -- 96
2020-06-16 09:00:00 7.4 3 Oeste 7 Oeste 0 -- -- 97
2020-06-16 08:00:00 6.3 3 Sudoeste 8 Sudoeste 0 -- -- 98
2020-06-16 07:00:00 5.5 0 Calma 8 Oeste 0 -- -- 98
2020-06-16 06:00:00 5.7 6 Oeste 13 Oeste 0 -- -- 99
2020-06-16 05:00:00 5.9 3 Sudoeste 8 Noroeste 0 -- -- 98
2020-06-16 04:00:00 5.9 6 Norte 8 Norte 0 -- -- 98
2020-06-16 03:00:00 6.4 3 Oeste 6 Oeste 0 -- -- 98
2020-06-16 02:00:00 6.7 0 Calma 3 Este 0 -- -- 97
2020-06-16 01:00:00 7 0 Calma 5 Noroeste 0 -- -- 97
2020-06-16 00:00:00 7.2 0 Calma 9 Noroeste 0 -- -- 96
2020-06-15 23:00:00 8 4 Oeste 10 Oeste 0 -- -- 95
2020-06-15 22:00:00 9.4 6 Oeste 16 Noroeste 0 -- -- 85
2020-06-15 21:00:00 10 8 Oeste 12 Noroeste 0 -- -- 83
2020-06-15 20:00:00 11.6 6 Oeste 25 Noroeste 0 -- -- 75
2020-06-15 19:00:00 11.1 21 Oeste 36 Sudoeste 0 -- -- 78
2020-06-15 18:00:00 11.1 21 Oeste 38 Noroeste 0 -- -- 74
2020-06-15 17:00:00 13 16 Oeste 39 Sudoeste 0 -- -- 65
2020-06-15 16:00:00 13.8 18 Oeste 35 Oeste 0 -- -- 62
2020-06-15 15:00:00 14.2 16 Oeste 30 Oeste 0 -- -- 63
2020-06-15 14:00:00 13.8 12 Sudoeste 26 Oeste 0 -- -- 67
2020-06-15 13:00:00 13.6 8 Oeste 24 Oeste 0 -- -- 65
2020-06-15 12:00:00 11.9 12 Oeste 23 Oeste 0 -- -- 69
2020-06-15 11:00:00 10 7 Noroeste 12 Oeste 0 -- -- 74
2020-06-15 10:00:00 7.6 3 Noroeste 5 Este 0 -- -- 89
2020-06-15 09:00:00 10.3 0 Calma 7 Este 0 -- -- 77
2020-06-15 08:00:00 7.3 3 Este 8 Este 0 -- -- 90
2020-06-15 07:00:00 5.9 3 Oeste 8 Sudoeste 0 -- -- 96
2020-06-15 06:00:00 5.3 5 Sudoeste 9 Oeste 0 -- -- 98
2020-06-15 05:00:00 5.7 0 Calma 12 Oeste 0 -- -- 98
2020-06-15 04:00:00 5.8 0 Calma 11 Sudoeste 0 -- -- 98
2020-06-15 03:00:00 6.4 4 Este 8 Este 0 -- -- 97
2020-06-15 02:00:00 6.4 6 Este 9 Este 0 -- -- 96
2020-06-15 01:00:00 7.1 0 Calma 5 Este 0 -- -- 92
2020-06-15 00:00:00 7.8 0 Calma 5 Oeste 0 -- -- 90
2020-06-14 23:00:00 7.9 3 Sudoeste 12 Oeste 0 -- -- 88
2020-06-14 22:00:00 8.1 5 Oeste 19 Oeste 0 -- -- 90
2020-06-14 21:00:00 9.4 14 Noroeste 32 Oeste 0 -- -- 76
2020-06-14 20:00:00 10.9 17 Oeste 38 Oeste 0 -- -- 67
2020-06-14 19:00:00 10.6 21 Oeste 29 Oeste 0 -- -- 70
2020-06-14 18:00:00 10.7 13 Oeste 30 Oeste 0 -- -- 70
2020-06-14 17:00:00 10.4 19 Oeste 36 Oeste 0 -- -- 69
2020-06-14 16:00:00 10.3 18 Oeste 39 Oeste 0 -- -- 69
2020-06-14 15:00:00 10.1 20 Oeste 39 Oeste 0 -- -- 71
2020-06-14 14:00:00 10.1 22 Oeste 38 Oeste 0 -- -- 67
2020-06-14 13:00:00 10.5 18 Oeste 29 Oeste 0 -- -- 64
2020-06-14 12:00:00 9.6 15 Oeste 24 Oeste 0 -- -- 68
2020-06-14 11:00:00 8.2 12 Oeste 22 Oeste 0 -- -- 70
2020-06-14 10:00:00 7.1 12 Noroeste 18 Noroeste 0 -- -- 78
2020-06-14 09:00:00 8.8 3 Oeste 15 Oeste 0 -- -- 70
2020-06-14 08:00:00 5.4 9 Sudoeste 12 Sudoeste 0 -- -- 79
2020-06-14 07:00:00 5.2 8 Oeste 11 Oeste 0 -- -- 79
2020-06-14 06:00:00 4.9 4 Sudoeste 9 Sudoeste 0 -- -- 78
2020-06-14 05:00:00 5.1 2 Oeste 9 Sudoeste 0 -- -- 79
2020-06-14 04:00:00 5.1 7 Sudoeste 11 Sudoeste 0 -- -- 79
2020-06-14 03:00:00 5.9 7 Noroeste 14 Noroeste 0 -- -- 78
2020-06-14 02:00:00 6.1 13 Noroeste 18 Oeste 0 -- -- 80
2020-06-14 01:00:00 5.6 12 Oeste 17 Oeste 0 -- -- 88
2020-06-14 00:00:00 6 13 Oeste 17 Oeste 0 -- -- 91
2020-06-13 23:00:00 6.2 11 Oeste 35 Sudoeste 0 -- -- 91
2020-06-13 22:00:00 6.8 23 Oeste 39 Oeste 0 -- -- 90
2020-06-13 21:00:00 7.5 24 Oeste 33 Oeste 0 -- -- 90
2020-06-13 20:00:00 7.7 17 Oeste 26 Oeste 0 -- -- 92
2020-06-13 19:00:00 6.9 17 Oeste 40 Oeste 0.4 -- -- 96
2020-06-13 18:00:00 7.2 34 Oeste 51 Oeste 0.2 -- -- 90
2020-06-13 17:00:00 9.9 30 Oeste 60 Oeste 0 -- -- 72
2020-06-13 16:00:00 8.8 31 Oeste 50 Sudoeste 0 -- -- 76
2020-06-13 15:00:00 9.2 25 Oeste 40 Sudoeste 0 -- -- 79
2020-06-13 14:00:00 8.7 27 Oeste 44 Oeste 0 -- -- 77
2020-06-13 13:00:00 9.3 26 Oeste 43 Oeste 0 -- -- 75
2020-06-13 12:00:00 7.1 20 Oeste 33 Oeste 0 -- -- 86
2020-06-13 11:00:00 5.9 23 Oeste 36 Oeste 0 -- -- 94
2020-06-13 10:00:00 4.8 26 Oeste 38 Oeste 0 -- -- 98
2020-06-13 09:00:00 3.9 23 Oeste 39 Oeste 0.2 -- -- 99
2020-06-13 08:00:00 3.6 27 Oeste 41 Oeste 0.2 -- -- 99
2020-06-13 07:00:00 3.5 26 Oeste 36 Oeste 0.2 -- -- 99
2020-06-13 06:00:00 3.5 23 Oeste 35 Oeste 0 -- -- 99
2020-06-13 05:00:00 3.6 19 Oeste 27 Oeste 0 -- -- 99
2020-06-13 04:00:00 3.9 15 Oeste 24 Oeste 0.4 -- -- 98
2020-06-13 03:00:00 4.2 15 Oeste 24 Oeste 0.2 -- -- 98
2020-06-13 02:00:00 4.3 15 Oeste 37 Oeste 0.2 -- -- 98
2020-06-13 01:00:00 4.5 22 Oeste 34 Oeste 0 -- -- 97
2020-06-13 00:00:00 4.8 17 Oeste 42 Oeste 0 -- -- 97
2020-06-12 23:00:00 5.1 26 Oeste 41 Oeste 0 -- -- 95
2020-06-12 22:00:00 4.9 23 Oeste 31 Oeste 0 -- -- 94
2020-06-12 21:00:00 5.3 18 Oeste 36 Oeste 0.2 -- -- 94
2020-06-12 20:00:00 6.1 13 Noroeste 43 Oeste 0 -- -- 92
2020-06-12 19:00:00 7.3 20 Oeste 35 Oeste 0 -- -- 85
2020-06-12 18:00:00 7.1 20 Oeste 35 Oeste 0 -- -- 87
2020-06-12 17:00:00 4.8 18 Oeste 29 Oeste 1.4 -- -- 97
2020-06-12 16:00:00 3.3 26 Oeste 47 Oeste 1.6 -- -- 95
2020-06-12 15:00:00 4.3 29 Oeste 57 Oeste 0.8 -- -- 95
2020-06-12 14:00:00 6 28 Oeste 51 Oeste 0 -- -- 87
2020-06-12 13:00:00 5.5 29 Oeste 47 Oeste 0 -- -- 84
2020-06-12 12:00:00 5.2 23 Oeste 52 Oeste 0 -- -- 85
2020-06-12 11:00:00 4.8 27 Oeste 49 Oeste 0 -- -- 86
2020-06-12 10:00:00 4.9 23 Oeste 49 Oeste 0 -- -- 90
2020-06-12 09:00:00 3.4 28 Oeste 47 Oeste 0 -- -- 96
2020-06-12 08:00:00 2.5 26 Oeste 36 Oeste 0 -- -- 99
2020-06-12 07:00:00 2.7 25 Oeste 52 Oeste 0.2 -- -- 99
2020-06-12 06:00:00 2.4 26 Oeste 55 Oeste 1 -- -- 98
2020-06-12 05:00:00 2.4 39 Oeste 67 Sudoeste 0.6 -- -- 98
2020-06-12 04:00:00 2 39 Oeste 67 Oeste 1 -- -- 98
2020-06-12 03:00:00 1.9 43 Oeste 66 Oeste 0.4 -- -- 97
2020-06-12 02:00:00 1.9 27 Oeste 72 Oeste 0.2 -- -- 96
2020-06-12 01:00:00 2.2 37 Oeste 56 Oeste 0 -- -- 95
2020-06-12 00:00:00 2.2 28 Oeste 40 Oeste 0 -- -- 91
2020-06-11 23:00:00 1.6 17 Oeste 41 Noroeste 0 -- -- 89
2020-06-11 22:00:00 2 13 Oeste 28 Oeste 0 -- -- 96
2020-06-11 21:00:00 3.3 21 Oeste 43 Noroeste 0.2 -- -- 94
2020-06-11 20:00:00 4.3 26 Oeste 58 Oeste 1 -- -- 91
2020-06-11 19:00:00 7.4 24 Oeste 66 Oeste 0 -- -- 74
2020-06-11 18:00:00 10.5 28 Oeste 49 Oeste 0.2 -- -- 60
2020-06-11 17:00:00 8.2 24 Oeste 36 Oeste 0.2 -- -- 81
2020-06-11 16:00:00 9.5 10 Oeste 30 Oeste 0.6 -- -- 93
2020-06-11 15:00:00 7.1 22 Noroeste 35 Noroeste 0.4 -- -- 90
2020-06-11 14:00:00 8 15 Noroeste 60 Oeste 0.2 -- -- 89
2020-06-11 13:00:00 12.4 29 Oeste 53 Oeste 0 -- -- 64
2020-06-11 12:00:00 9.8 15 Oeste 28 Oeste 0 -- -- 72
2020-06-11 11:00:00 8.4 19 Oeste 31 Oeste 0 -- -- 85
2020-06-11 10:00:00 8.3 12 Oeste 24 Noroeste 0 -- -- 84
2020-06-11 09:00:00 7 14 Oeste 25 Oeste 0 -- -- 96
2020-06-11 08:00:00 6.8 13 Oeste 19 Oeste 0 -- -- 97
2020-06-11 07:00:00 6.7 12 Oeste 18 Oeste 0 -- -- 95
2020-06-11 06:00:00 6.9 11 Oeste 19 Oeste 0 -- -- 88
2020-06-11 05:00:00 6.6 11 Oeste 23 Noroeste 0 -- -- 87
2020-06-11 04:00:00 6.8 16 Oeste 22 Noroeste 0 -- -- 86
2020-06-11 03:00:00 7 17 Oeste 22 Oeste 0 -- -- 89
2020-06-11 02:00:00 7.2 13 Oeste 18 Oeste 0 -- -- 85
2020-06-11 01:00:00 7.1 11 Oeste 22 Oeste 0 -- -- 93
2020-06-11 00:00:00 7.1 10 Oeste 17 Noroeste 0 -- -- 95
2020-06-10 23:00:00 7.7 9 Oeste 11 Oeste 0 -- -- 93
2020-06-10 22:00:00 8.8 3 Nordeste 13 Este 0 -- -- 87
2020-06-10 21:00:00 9.9 11 Este 15 Este 0 -- -- 83
2020-06-10 20:00:00 12 6 Oeste 17 Oeste 0 -- -- 65
2020-06-10 19:00:00 12.1 11 Oeste 21 Noroeste 0 -- -- 66
2020-06-10 18:00:00 12.4 12 Oeste 23 Oeste 0 -- -- 62
2020-06-10 17:00:00 13.7 10 Oeste 25 Oeste 0 -- -- 60
2020-06-10 16:00:00 14.6 11 Sudoeste 25 Sudoeste 0 -- -- 62
2020-06-10 15:00:00 13.3 11 Sudoeste 21 Sudoeste 0 -- -- 61
2020-06-10 14:00:00 13.1 7 Sudoeste 15 Sudoeste 0 -- -- 66
2020-06-10 13:00:00 12.2 11 Oeste 26 Oeste 0 -- -- 60
2020-06-10 12:00:00 10.5 14 Oeste 24 Sudoeste 0 -- -- 69
2020-06-10 11:00:00 10.8 13 Oeste 23 Oeste 0 -- -- 69
2020-06-10 10:00:00 7.6 9 Oeste 13 Oeste 0 -- -- 81
2020-06-10 09:00:00 5.8 7 Oeste 10 Oeste 0 -- -- 83
2020-06-10 08:00:00 4.7 7 Oeste 9 Noroeste 0 -- -- 85
2020-06-10 07:00:00 3 5 Oeste 6 Oeste 0 -- -- 98
2020-06-10 06:00:00 3.4 4 Oeste 6 Oeste 0 -- -- 99
2020-06-10 05:00:00 3.2 3 Noroeste 5 Norte 0 -- -- 99
2020-06-10 04:00:00 3.1 0 Calma 8 Nordeste 0 -- -- 98
2020-06-10 03:00:00 3.5 4 Este 14 Sudeste 0 -- -- 97
2020-06-10 02:00:00 4.1 5 Este 7 Este 0 -- -- 96
2020-06-10 01:00:00 4.3 0 Calma 6 Noroeste 0 -- -- 95
2020-06-10 00:00:00 4.8 3 Noroeste 9 Noroeste 0 -- -- 93